sensor_id;sensor_type;location;lat;lon;timestamp;P1;durP1;ratioP1;P2;durP2;ratioP2
26504;SDS011;19493;48.042;7.584;2024-02-26T00:01:23;5.80;;;1.10;;
26504;SDS011;19493;48.042;7.584;2024-02-26T00:03:49;3.30;;;1.42;;
26504;SDS011;19493;48.042;7.584;2024-02-26T00:06:15;3.15;;;1.05;;
26504;SDS011;19493;48.042;7.584;2024-02-26T00:08:40;10.40;;;0.73;;
26504;SDS011;19493;48.042;7.584;2024-02-26T00:11:06;5.03;;;0.90;;
26504;SDS011;19493;48.042;7.584;2024-02-26T00:13:31;5.13;;;1.00;;
26504;SDS011;19493;48.042;7.584;2024-02-26T00:15:57;3.13;;;1.10;;
26504;SDS011;19493;48.042;7.584;2024-02-26T00:18:22;2.47;;;0.73;;
26504;SDS011;19493;48.042;7.584;2024-02-26T00:20:48;2.60;;;1.00;;
26504;SDS011;19493;48.042;7.584;2024-02-26T00:23:16;3.13;;;1.13;;
26504;SDS011;19493;48.042;7.584;2024-02-26T00:25:42;3.03;;;0.90;;
26504;SDS011;19493;48.042;7.584;2024-02-26T00:28:08;3.92;;;0.88;;
26504;SDS011;19493;48.042;7.584;2024-02-26T00:30:35;4.20;;;1.88;;
26504;SDS011;19493;48.042;7.584;2024-02-26T00:33:00;2.20;;;0.60;;
26504;SDS011;19493;48.042;7.584;2024-02-26T00:35:26;1.45;;;0.65;;
26504;SDS011;19493;48.042;7.584;2024-02-26T00:37:52;2.17;;;0.60;;
26504;SDS011;19493;48.042;7.584;2024-02-26T00:40:18;1.33;;;0.85;;
26504;SDS011;19493;48.042;7.584;2024-02-26T00:42:44;5.30;;;0.85;;
26504;SDS011;19493;48.042;7.584;2024-02-26T00:45:14;3.13;;;0.82;;
26504;SDS011;19493;48.042;7.584;2024-02-26T00:47:41;2.90;;;0.82;;
26504;SDS011;19493;48.042;7.584;2024-02-26T00:50:07;1.52;;;0.57;;
26504;SDS011;19493;48.042;7.584;2024-02-26T00:52:34;1.13;;;0.70;;
26504;SDS011;19493;48.042;7.584;2024-02-26T00:55:00;1.90;;;0.70;;
26504;SDS011;19493;48.042;7.584;2024-02-26T00:57:26;3.65;;;0.52;;
26504;SDS011;19493;48.042;7.584;2024-02-26T00:59:51;1.40;;;0.55;;
26504;SDS011;19493;48.042;7.584;2024-02-26T01:02:17;2.10;;;0.57;;
26504;SDS011;19493;48.042;7.584;2024-02-26T01:04:43;1.25;;;0.68;;
26504;SDS011;19493;48.042;7.584;2024-02-26T01:07:08;1.50;;;0.60;;
26504;SDS011;19493;48.042;7.584;2024-02-26T01:09:34;0.70;;;0.40;;
26504;SDS011;19493;48.042;7.584;2024-02-26T01:12:00;1.73;;;0.63;;
26504;SDS011;19493;48.042;7.584;2024-02-26T01:14:27;3.45;;;0.90;;
26504;SDS011;19493;48.042;7.584;2024-02-26T01:16:53;0.85;;;0.55;;
26504;SDS011;19493;48.042;7.584;2024-02-26T01:19:18;1.65;;;0.80;;
26504;SDS011;19493;48.042;7.584;2024-02-26T01:21:44;1.40;;;0.80;;
26504;SDS011;19493;48.042;7.584;2024-02-26T01:24:09;2.58;;;0.82;;
26504;SDS011;19493;48.042;7.584;2024-02-26T01:26:35;5.00;;;1.10;;
26504;SDS011;19493;48.042;7.584;2024-02-26T01:29:01;5.47;;;0.85;;
26504;SDS011;19493;48.042;7.584;2024-02-26T01:31:26;1.70;;;0.68;;
26504;SDS011;19493;48.042;7.584;2024-02-26T01:33:52;2.67;;;1.02;;
26504;SDS011;19493;48.042;7.584;2024-02-26T01:36:18;2.08;;;0.70;;
26504;SDS011;19493;48.042;7.584;2024-02-26T01:38:43;7.85;;;0.75;;
26504;SDS011;19493;48.042;7.584;2024-02-26T01:41:09;2.03;;;0.50;;
26504;SDS011;19493;48.042;7.584;2024-02-26T01:43:34;1.35;;;0.52;;
26504;SDS011;19493;48.042;7.584;2024-02-26T01:46:00;2.22;;;0.63;;
26504;SDS011;19493;48.042;7.584;2024-02-26T01:48:26;7.20;;;1.05;;
26504;SDS011;19493;48.042;7.584;2024-02-26T01:50:51;2.65;;;0.65;;
26504;SDS011;19493;48.042;7.584;2024-02-26T01:53:17;2.25;;;0.95;;
26504;SDS011;19493;48.042;7.584;2024-02-26T01:55:44;5.22;;;1.42;;
26504;SDS011;19493;48.042;7.584;2024-02-26T01:58:10;9.23;;;2.10;;
26504;SDS011;19493;48.042;7.584;2024-02-26T02:00:36;5.63;;;1.70;;
26504;SDS011;19493;48.042;7.584;2024-02-26T02:03:03;3.55;;;1.65;;
26504;SDS011;19493;48.042;7.584;2024-02-26T02:05:30;7.75;;;2.28;;
26504;SDS011;19493;48.042;7.584;2024-02-26T02:07:56;9.45;;;1.83;;
26504;SDS011;19493;48.042;7.584;2024-02-26T02:10:22;18.13;;;2.25;;
26504;SDS011;19493;48.042;7.584;2024-02-26T02:12:50;5.95;;;1.60;;
26504;SDS011;19493;48.042;7.584;2024-02-26T02:15:15;4.57;;;1.42;;
26504;SDS011;19493;48.042;7.584;2024-02-26T02:17:41;5.40;;;1.67;;
26504;SDS011;19493;48.042;7.584;2024-02-26T02:20:10;5.97;;;2.00;;
26504;SDS011;19493;48.042;7.584;2024-02-26T02:22:42;4.70;;;1.50;;
26504;SDS011;19493;48.042;7.584;2024-02-26T02:25:08;2.75;;;1.08;;
26504;SDS011;19493;48.042;7.584;2024-02-26T02:27:33;4.15;;;1.42;;
26504;SDS011;19493;48.042;7.584;2024-02-26T02:29:59;4.10;;;1.73;;
26504;SDS011;19493;48.042;7.584;2024-02-26T02:32:25;3.15;;;1.50;;
26504;SDS011;19493;48.042;7.584;2024-02-26T02:34:51;5.25;;;1.42;;
26504;SDS011;19493;48.042;7.584;2024-02-26T02:37:17;5.70;;;2.15;;
26504;SDS011;19493;48.042;7.584;2024-02-26T02:39:43;7.15;;;2.00;;
26504;SDS011;19493;48.042;7.584;2024-02-26T02:42:09;8.65;;;2.15;;
26504;SDS011;19493;48.042;7.584;2024-02-26T02:44:35;19.15;;;3.10;;
26504;SDS011;19493;48.042;7.584;2024-02-26T02:47:01;12.52;;;2.78;;
26504;SDS011;19493;48.042;7.584;2024-02-26T02:49:26;14.57;;;3.25;;
26504;SDS011;19493;48.042;7.584;2024-02-26T02:51:52;10.73;;;3.60;;
26504;SDS011;19493;48.042;7.584;2024-02-26T02:54:19;17.90;;;3.30;;
26504;SDS011;19493;48.042;7.584;2024-02-26T02:56:45;12.23;;;2.92;;
26504;SDS011;19493;48.042;7.584;2024-02-26T02:59:10;4.68;;;1.95;;
26504;SDS011;19493;48.042;7.584;2024-02-26T03:01:36;12.30;;;2.78;;
26504;SDS011;19493;48.042;7.584;2024-02-26T03:04:02;17.85;;;3.08;;
26504;SDS011;19493;48.042;7.584;2024-02-26T03:06:27;19.52;;;3.60;;
26504;SDS011;19493;48.042;7.584;2024-02-26T03:08:53;12.00;;;3.03;;
26504;SDS011;19493;48.042;7.584;2024-02-26T03:11:19;8.07;;;2.67;;
26504;SDS011;19493;48.042;7.584;2024-02-26T03:13:45;7.53;;;2.28;;
26504;SDS011;19493;48.042;7.584;2024-02-26T03:16:11;8.82;;;1.95;;
26504;SDS011;19493;48.042;7.584;2024-02-26T03:18:40;9.43;;;2.05;;
26504;SDS011;19493;48.042;7.584;2024-02-26T03:21:06;4.80;;;1.67;;
26504;SDS011;19493;48.042;7.584;2024-02-26T03:23:32;8.10;;;2.83;;
26504;SDS011;19493;48.042;7.584;2024-02-26T03:26:01;10.02;;;2.55;;
26504;SDS011;19493;48.042;7.584;2024-02-26T03:28:28;8.90;;;2.47;;
26504;SDS011;19493;48.042;7.584;2024-02-26T03:30:54;17.17;;;2.67;;
26504;SDS011;19493;48.042;7.584;2024-02-26T03:33:19;10.48;;;3.15;;
26504;SDS011;19493;48.042;7.584;2024-02-26T03:35:45;10.48;;;2.60;;
26504;SDS011;19493;48.042;7.584;2024-02-26T03:38:10;14.88;;;2.83;;
26504;SDS011;19493;48.042;7.584;2024-02-26T03:40:36;8.88;;;2.53;;
26504;SDS011;19493;48.042;7.584;2024-02-26T03:43:02;9.57;;;2.15;;
26504;SDS011;19493;48.042;7.584;2024-02-26T03:45:29;7.05;;;2.80;;
26504;SDS011;19493;48.042;7.584;2024-02-26T03:47:55;13.15;;;2.60;;
26504;SDS011;19493;48.042;7.584;2024-02-26T03:50:20;6.88;;;2.25;;
26504;SDS011;19493;48.042;7.584;2024-02-26T03:52:46;8.13;;;1.92;;
26504;SDS011;19493;48.042;7.584;2024-02-26T03:55:11;6.82;;;2.58;;
26504;SDS011;19493;48.042;7.584;2024-02-26T03:57:37;2.72;;;1.17;;
26504;SDS011;19493;48.042;7.584;2024-02-26T04:00:03;11.93;;;1.88;;
26504;SDS011;19493;48.042;7.584;2024-02-26T04:02:29;3.95;;;1.73;;
26504;SDS011;19493;48.042;7.584;2024-02-26T04:04:54;12.13;;;2.47;;
26504;SDS011;19493;48.042;7.584;2024-02-26T04:07:20;6.70;;;1.92;;
26504;SDS011;19493;48.042;7.584;2024-02-26T04:09:45;8.38;;;2.00;;
26504;SDS011;19493;48.042;7.584;2024-02-26T04:12:11;9.05;;;1.85;;
26504;SDS011;19493;48.042;7.584;2024-02-26T04:14:36;7.50;;;2.92;;
26504;SDS011;19493;48.042;7.584;2024-02-26T04:17:02;9.20;;;2.90;;
26504;SDS011;19493;48.042;7.584;2024-02-26T04:19:28;7.55;;;2.20;;
26504;SDS011;19493;48.042;7.584;2024-02-26T04:21:54;5.55;;;2.22;;
26504;SDS011;19493;48.042;7.584;2024-02-26T04:24:20;8.43;;;2.55;;
26504;SDS011;19493;48.042;7.584;2024-02-26T04:26:45;11.15;;;2.60;;
26504;SDS011;19493;48.042;7.584;2024-02-26T04:29:11;11.63;;;3.03;;
26504;SDS011;19493;48.042;7.584;2024-02-26T04:31:37;13.02;;;2.80;;
26504;SDS011;19493;48.042;7.584;2024-02-26T04:34:03;8.85;;;2.65;;
26504;SDS011;19493;48.042;7.584;2024-02-26T04:36:28;12.27;;;2.95;;
26504;SDS011;19493;48.042;7.584;2024-02-26T04:38:54;6.43;;;2.83;;
26504;SDS011;19493;48.042;7.584;2024-02-26T04:41:21;11.43;;;3.00;;
26504;SDS011;19493;48.042;7.584;2024-02-26T04:43:47;11.13;;;2.97;;
26504;SDS011;19493;48.042;7.584;2024-02-26T04:46:13;9.05;;;3.28;;
26504;SDS011;19493;48.042;7.584;2024-02-26T04:48:38;8.32;;;2.70;;
26504;SDS011;19493;48.042;7.584;2024-02-26T04:51:06;12.57;;;2.92;;
26504;SDS011;19493;48.042;7.584;2024-02-26T04:53:32;10.90;;;3.35;;
26504;SDS011;19493;48.042;7.584;2024-02-26T04:55:57;11.60;;;3.20;;
26504;SDS011;19493;48.042;7.584;2024-02-26T04:58:24;6.40;;;2.15;;
26504;SDS011;19493;48.042;7.584;2024-02-26T05:00:49;11.00;;;3.00;;
26504;SDS011;19493;48.042;7.584;2024-02-26T05:03:15;9.50;;;3.35;;
26504;SDS011;19493;48.042;7.584;2024-02-26T05:05:42;15.10;;;3.13;;
26504;SDS011;19493;48.042;7.584;2024-02-26T05:08:08;8.52;;;2.60;;
26504;SDS011;19493;48.042;7.584;2024-02-26T05:10:34;12.27;;;3.72;;
26504;SDS011;19493;48.042;7.584;2024-02-26T05:13:04;12.13;;;3.40;;
26504;SDS011;19493;48.042;7.584;2024-02-26T05:15:29;10.93;;;3.63;;
26504;SDS011;19493;48.042;7.584;2024-02-26T05:17:55;11.75;;;3.13;;
26504;SDS011;19493;48.042;7.584;2024-02-26T05:20:21;11.40;;;3.20;;
26504;SDS011;19493;48.042;7.584;2024-02-26T05:22:46;12.30;;;3.40;;
26504;SDS011;19493;48.042;7.584;2024-02-26T05:25:14;10.95;;;3.53;;
26504;SDS011;19493;48.042;7.584;2024-02-26T05:27:40;9.55;;;3.42;;
26504;SDS011;19493;48.042;7.584;2024-02-26T05:30:07;38.38;;;5.38;;
26504;SDS011;19493;48.042;7.584;2024-02-26T05:32:32;8.80;;;3.33;;
26504;SDS011;19493;48.042;7.584;2024-02-26T05:34:58;14.30;;;3.67;;
26504;SDS011;19493;48.042;7.584;2024-02-26T05:37:24;11.30;;;4.03;;
26504;SDS011;19493;48.042;7.584;2024-02-26T05:39:49;18.13;;;4.45;;
26504;SDS011;19493;48.042;7.584;2024-02-26T05:42:15;13.20;;;3.78;;
26504;SDS011;19493;48.042;7.584;2024-02-26T05:44:40;16.48;;;4.32;;
26504;SDS011;19493;48.042;7.584;2024-02-26T05:47:06;19.08;;;5.15;;
26504;SDS011;19493;48.042;7.584;2024-02-26T05:49:31;12.00;;;4.60;;
26504;SDS011;19493;48.042;7.584;2024-02-26T05:51:58;11.95;;;4.50;;
26504;SDS011;19493;48.042;7.584;2024-02-26T05:54:24;11.98;;;4.32;;
26504;SDS011;19493;48.042;7.584;2024-02-26T05:56:49;17.33;;;5.35;;
26504;SDS011;19493;48.042;7.584;2024-02-26T05:59:15;13.50;;;4.85;;
26504;SDS011;19493;48.042;7.584;2024-02-26T06:01:41;21.63;;;7.13;;
26504;SDS011;19493;48.042;7.584;2024-02-26T06:04:06;22.65;;;6.93;;
26504;SDS011;19493;48.042;7.584;2024-02-26T06:06:32;16.10;;;6.20;;
26504;SDS011;19493;48.042;7.584;2024-02-26T06:08:58;22.13;;;6.10;;
26504;SDS011;19493;48.042;7.584;2024-02-26T06:11:23;29.65;;;6.68;;
26504;SDS011;19493;48.042;7.584;2024-02-26T06:13:49;32.10;;;10.00;;
26504;SDS011;19493;48.042;7.584;2024-02-26T06:16:14;43.22;;;12.40;;
26504;SDS011;19493;48.042;7.584;2024-02-26T06:18:40;36.13;;;9.00;;
26504;SDS011;19493;48.042;7.584;2024-02-26T06:21:09;43.22;;;11.57;;
26504;SDS011;19493;48.042;7.584;2024-02-26T06:23:35;20.75;;;7.97;;
26504;SDS011;19493;48.042;7.584;2024-02-26T06:26:01;37.40;;;12.05;;
26504;SDS011;19493;48.042;7.584;2024-02-26T06:28:27;27.63;;;9.15;;
26504;SDS011;19493;48.042;7.584;2024-02-26T06:30:55;33.00;;;9.65;;
26504;SDS011;19493;48.042;7.584;2024-02-26T06:33:21;22.10;;;7.93;;
26504;SDS011;19493;48.042;7.584;2024-02-26T06:35:46;41.97;;;9.93;;
26504;SDS011;19493;48.042;7.584;2024-02-26T06:38:12;25.92;;;7.18;;
26504;SDS011;19493;48.042;7.584;2024-02-26T06:40:38;22.77;;;6.55;;
26504;SDS011;19493;48.042;7.584;2024-02-26T06:43:04;15.77;;;5.68;;
26504;SDS011;19493;48.042;7.584;2024-02-26T06:45:30;22.35;;;5.80;;
26504;SDS011;19493;48.042;7.584;2024-02-26T06:47:55;25.95;;;6.63;;
26504;SDS011;19493;48.042;7.584;2024-02-26T06:50:21;24.75;;;7.85;;
26504;SDS011;19493;48.042;7.584;2024-02-26T06:52:47;19.08;;;6.57;;
26504;SDS011;19493;48.042;7.584;2024-02-26T06:55:13;25.70;;;6.47;;
26504;SDS011;19493;48.042;7.584;2024-02-26T06:57:38;24.45;;;7.30;;
26504;SDS011;19493;48.042;7.584;2024-02-26T07:00:04;23.13;;;6.25;;
26504;SDS011;19493;48.042;7.584;2024-02-26T07:02:30;19.40;;;6.00;;
26504;SDS011;19493;48.042;7.584;2024-02-26T07:04:56;15.93;;;5.70;;
26504;SDS011;19493;48.042;7.584;2024-02-26T07:07:23;22.92;;;6.00;;
26504;SDS011;19493;48.042;7.584;2024-02-26T07:09:49;25.35;;;6.65;;
26504;SDS011;19493;48.042;7.584;2024-02-26T07:12:15;35.42;;;7.22;;
26504;SDS011;19493;48.042;7.584;2024-02-26T07:14:46;19.25;;;6.38;;
26504;SDS011;19493;48.042;7.584;2024-02-26T07:17:11;33.97;;;10.02;;
26504;SDS011;19493;48.042;7.584;2024-02-26T07:19:37;26.60;;;7.68;;
26504;SDS011;19493;48.042;7.584;2024-02-26T07:22:03;28.60;;;8.32;;
26504;SDS011;19493;48.042;7.584;2024-02-26T07:24:28;28.40;;;7.13;;
26504;SDS011;19493;48.042;7.584;2024-02-26T07:26:54;23.40;;;6.70;;
26504;SDS011;19493;48.042;7.584;2024-02-26T07:29:20;16.60;;;6.40;;
26504;SDS011;19493;48.042;7.584;2024-02-26T07:31:46;28.42;;;7.78;;
26504;SDS011;19493;48.042;7.584;2024-02-26T07:34:12;21.60;;;6.47;;
26504;SDS011;19493;48.042;7.584;2024-02-26T07:36:38;21.20;;;5.93;;
26504;SDS011;19493;48.042;7.584;2024-02-26T07:39:03;31.63;;;8.02;;
26504;SDS011;19493;48.042;7.584;2024-02-26T07:41:30;39.20;;;8.88;;
26504;SDS011;19493;48.042;7.584;2024-02-26T07:43:55;29.77;;;6.88;;
26504;SDS011;19493;48.042;7.584;2024-02-26T07:46:21;30.90;;;6.20;;
26504;SDS011;19493;48.042;7.584;2024-02-26T07:48:47;20.77;;;4.97;;
26504;SDS011;19493;48.042;7.584;2024-02-26T07:51:13;16.88;;;4.40;;
26504;SDS011;19493;48.042;7.584;2024-02-26T07:53:39;12.60;;;4.45;;
26504;SDS011;19493;48.042;7.584;2024-02-26T07:56:05;20.45;;;4.10;;
26504;SDS011;19493;48.042;7.584;2024-02-26T07:58:34;17.70;;;6.10;;
26504;SDS011;19493;48.042;7.584;2024-02-26T08:01:00;15.68;;;4.70;;
26504;SDS011;19493;48.042;7.584;2024-02-26T08:03:25;19.15;;;5.10;;
26504;SDS011;19493;48.042;7.584;2024-02-26T08:05:51;16.02;;;4.55;;
26504;SDS011;19493;48.042;7.584;2024-02-26T08:08:17;20.55;;;5.65;;
26504;SDS011;19493;48.042;7.584;2024-02-26T08:10:42;24.20;;;7.55;;
26504;SDS011;19493;48.042;7.584;2024-02-26T08:13:08;14.00;;;4.60;;
26504;SDS011;19493;48.042;7.584;2024-02-26T08:15:35;15.75;;;4.40;;
26504;SDS011;19493;48.042;7.584;2024-02-26T08:18:02;19.77;;;5.65;;
26504;SDS011;19493;48.042;7.584;2024-02-26T08:20:28;14.45;;;4.20;;
26504;SDS011;19493;48.042;7.584;2024-02-26T08:22:55;10.85;;;3.60;;
26504;SDS011;19493;48.042;7.584;2024-02-26T08:25:21;14.40;;;4.85;;
26504;SDS011;19493;48.042;7.584;2024-02-26T08:27:47;16.40;;;5.00;;
26504;SDS011;19493;48.042;7.584;2024-02-26T08:30:13;12.77;;;3.90;;
26504;SDS011;19493;48.042;7.584;2024-02-26T08:32:41;17.33;;;4.63;;
26504;SDS011;19493;48.042;7.584;2024-02-26T08:35:08;25.05;;;4.97;;
26504;SDS011;19493;48.042;7.584;2024-02-26T08:37:33;15.75;;;3.95;;
26504;SDS011;19493;48.042;7.584;2024-02-26T08:39:59;9.35;;;3.28;;
26504;SDS011;19493;48.042;7.584;2024-02-26T08:42:24;12.15;;;3.97;;
26504;SDS011;19493;48.042;7.584;2024-02-26T08:44:50;13.00;;;3.88;;
26504;SDS011;19493;48.042;7.584;2024-02-26T08:47:15;14.88;;;3.83;;
26504;SDS011;19493;48.042;7.584;2024-02-26T08:49:44;8.82;;;3.47;;
26504;SDS011;19493;48.042;7.584;2024-02-26T08:52:10;11.57;;;3.22;;
26504;SDS011;19493;48.042;7.584;2024-02-26T08:54:36;9.52;;;2.95;;
26504;SDS011;19493;48.042;7.584;2024-02-26T08:57:01;13.63;;;3.78;;
26504;SDS011;19493;48.042;7.584;2024-02-26T08:59:27;20.75;;;4.90;;
26504;SDS011;19493;48.042;7.584;2024-02-26T09:01:53;15.57;;;4.97;;
26504;SDS011;19493;48.042;7.584;2024-02-26T09:04:19;20.80;;;5.65;;
26504;SDS011;19493;48.042;7.584;2024-02-26T09:06:46;29.50;;;7.40;;
26504;SDS011;19493;48.042;7.584;2024-02-26T09:09:12;27.90;;;7.38;;
26504;SDS011;19493;48.042;7.584;2024-02-26T09:11:37;22.92;;;5.43;;
26504;SDS011;19493;48.042;7.584;2024-02-26T09:14:03;16.85;;;5.05;;
26504;SDS011;19493;48.042;7.584;2024-02-26T09:16:29;21.25;;;5.00;;
26504;SDS011;19493;48.042;7.584;2024-02-26T09:18:58;10.35;;;3.10;;
26504;SDS011;19493;48.042;7.584;2024-02-26T09:21:24;18.85;;;3.70;;
26504;SDS011;19493;48.042;7.584;2024-02-26T09:23:51;9.70;;;2.67;;
26504;SDS011;19493;48.042;7.584;2024-02-26T09:26:17;9.25;;;2.97;;
26504;SDS011;19493;48.042;7.584;2024-02-26T09:28:43;13.00;;;2.70;;
26504;SDS011;19493;48.042;7.584;2024-02-26T09:31:09;7.15;;;1.95;;
26504;SDS011;19493;48.042;7.584;2024-02-26T09:33:35;6.35;;;1.70;;
26504;SDS011;19493;48.042;7.584;2024-02-26T09:36:00;10.75;;;1.88;;
26504;SDS011;19493;48.042;7.584;2024-02-26T09:38:26;4.32;;;1.77;;
26504;SDS011;19493;48.042;7.584;2024-02-26T09:40:53;11.18;;;2.45;;
26504;SDS011;19493;48.042;7.584;2024-02-26T09:43:21;9.73;;;2.17;;
26504;SDS011;19493;48.042;7.584;2024-02-26T09:45:49;9.55;;;2.03;;
26504;SDS011;19493;48.042;7.584;2024-02-26T09:48:16;6.13;;;1.50;;
26504;SDS011;19493;48.042;7.584;2024-02-26T09:50:42;7.57;;;2.17;;
26504;SDS011;19493;48.042;7.584;2024-02-26T09:53:10;13.95;;;2.40;;
26504;SDS011;19493;48.042;7.584;2024-02-26T09:55:37;8.25;;;2.47;;
26504;SDS011;19493;48.042;7.584;2024-02-26T09:58:03;6.00;;;2.17;;
26504;SDS011;19493;48.042;7.584;2024-02-26T10:00:30;12.32;;;3.20;;
26504;SDS011;19493;48.042;7.584;2024-02-26T10:03:02;6.25;;;1.98;;
26504;SDS011;19493;48.042;7.584;2024-02-26T10:05:29;12.25;;;2.83;;
26504;SDS011;19493;48.042;7.584;2024-02-26T10:08:00;6.32;;;2.58;;
26504;SDS011;19493;48.042;7.584;2024-02-26T10:10:28;11.77;;;2.58;;
26504;SDS011;19493;48.042;7.584;2024-02-26T10:12:54;11.35;;;2.25;;
26504;SDS011;19493;48.042;7.584;2024-02-26T10:15:20;8.27;;;1.70;;
26504;SDS011;19493;48.042;7.584;2024-02-26T10:17:45;9.63;;;2.35;;
26504;SDS011;19493;48.042;7.584;2024-02-26T10:22:40;7.55;;;1.45;;
26504;SDS011;19493;48.042;7.584;2024-02-26T10:25:06;7.38;;;1.67;;
26504;SDS011;19493;48.042;7.584;2024-02-26T10:27:33;10.00;;;3.30;;
26504;SDS011;19493;48.042;7.584;2024-02-26T10:30:02;17.50;;;2.88;;
26504;SDS011;19493;48.042;7.584;2024-02-26T10:32:29;12.48;;;3.03;;
26504;SDS011;19493;48.042;7.584;2024-02-26T10:34:56;14.63;;;2.85;;
26504;SDS011;19493;48.042;7.584;2024-02-26T10:37:22;10.00;;;2.05;;
26504;SDS011;19493;48.042;7.584;2024-02-26T10:39:48;5.30;;;1.30;;
26504;SDS011;19493;48.042;7.584;2024-02-26T10:42:14;3.67;;;1.10;;
26504;SDS011;19493;48.042;7.584;2024-02-26T10:44:40;4.85;;;1.15;;
26504;SDS011;19493;48.042;7.584;2024-02-26T10:47:07;7.00;;;2.08;;
26504;SDS011;19493;48.042;7.584;2024-02-26T10:49:34;4.50;;;1.17;;
26504;SDS011;19493;48.042;7.584;2024-02-26T10:52:00;3.80;;;1.13;;
26504;SDS011;19493;48.042;7.584;2024-02-26T10:54:29;2.63;;;0.70;;
26504;SDS011;19493;48.042;7.584;2024-02-26T10:56:58;6.22;;;1.27;;
26504;SDS011;19493;48.042;7.584;2024-02-26T10:59:24;4.70;;;0.80;;
26504;SDS011;19493;48.042;7.584;2024-02-26T11:01:51;3.88;;;0.82;;
26504;SDS011;19493;48.042;7.584;2024-02-26T11:04:17;6.28;;;0.65;;
26504;SDS011;19493;48.042;7.584;2024-02-26T11:06:46;5.25;;;1.17;;
26504;SDS011;19493;48.042;7.584;2024-02-26T11:09:14;1.27;;;0.60;;
26504;SDS011;19493;48.042;7.584;2024-02-26T11:11:41;7.72;;;1.30;;
26504;SDS011;19493;48.042;7.584;2024-02-26T11:14:08;2.60;;;0.77;;
26504;SDS011;19493;48.042;7.584;2024-02-26T11:16:35;2.72;;;0.80;;
26504;SDS011;19493;48.042;7.584;2024-02-26T11:19:01;2.00;;;0.85;;
26504;SDS011;19493;48.042;7.584;2024-02-26T11:21:28;2.58;;;0.60;;
26504;SDS011;19493;48.042;7.584;2024-02-26T11:24:08;5.53;;;1.00;;
26504;SDS011;19493;48.042;7.584;2024-02-26T11:26:39;3.50;;;1.27;;
26504;SDS011;19493;48.042;7.584;2024-02-26T11:29:23;10.27;;;2.85;;
26504;SDS011;19493;48.042;7.584;2024-02-26T11:31:53;3.55;;;1.10;;
26504;SDS011;19493;48.042;7.584;2024-02-26T11:34:19;1.63;;;0.80;;
26504;SDS011;19493;48.042;7.584;2024-02-26T11:36:45;4.70;;;1.30;;
26504;SDS011;19493;48.042;7.584;2024-02-26T11:39:12;2.58;;;0.80;;
26504;SDS011;19493;48.042;7.584;2024-02-26T11:41:40;1.80;;;0.70;;
26504;SDS011;19493;48.042;7.584;2024-02-26T11:44:05;2.30;;;0.75;;
26504;SDS011;19493;48.042;7.584;2024-02-26T11:49:40;1.75;;;0.85;;
26504;SDS011;19493;48.042;7.584;2024-02-26T11:51:54;3.42;;;0.60;;
26504;SDS011;19493;48.042;7.584;2024-02-26T11:57:26;1.67;;;0.70;;
26504;SDS011;19493;48.042;7.584;2024-02-26T12:05:22;4.45;;;0.93;;
26504;SDS011;19493;48.042;7.584;2024-02-26T12:07:49;2.70;;;0.90;;
26504;SDS011;19493;48.042;7.584;2024-02-26T12:13:15;4.00;;;0.63;;
26504;SDS011;19493;48.042;7.584;2024-02-26T12:18:17;2.88;;;1.00;;
26504;SDS011;19493;48.042;7.584;2024-02-26T12:20:43;1.77;;;0.90;;
26504;SDS011;19493;48.042;7.584;2024-02-26T12:23:14;3.88;;;0.90;;
26504;SDS011;19493;48.042;7.584;2024-02-26T12:25:42;4.97;;;1.25;;
26504;SDS011;19493;48.042;7.584;2024-02-26T12:28:09;3.33;;;1.27;;
26504;SDS011;19493;48.042;7.584;2024-02-26T12:30:35;3.58;;;1.60;;
26504;SDS011;19493;48.042;7.584;2024-02-26T12:33:00;3.70;;;1.20;;
26504;SDS011;19493;48.042;7.584;2024-02-26T12:35:28;1.40;;;0.90;;
26504;SDS011;19493;48.042;7.584;2024-02-26T12:37:56;3.78;;;1.23;;
26504;SDS011;19493;48.042;7.584;2024-02-26T12:40:23;5.47;;;1.33;;
26504;SDS011;19493;48.042;7.584;2024-02-26T12:42:48;5.20;;;1.70;;
26504;SDS011;19493;48.042;7.584;2024-02-26T12:45:14;8.27;;;1.60;;
26504;SDS011;19493;48.042;7.584;2024-02-26T12:47:41;5.72;;;1.20;;
26504;SDS011;19493;48.042;7.584;2024-02-26T12:50:08;2.63;;;0.77;;
26504;SDS011;19493;48.042;7.584;2024-02-26T12:52:35;9.80;;;1.17;;
26504;SDS011;19493;48.042;7.584;2024-02-26T12:55:04;2.90;;;1.00;;
26504;SDS011;19493;48.042;7.584;2024-02-26T12:57:32;3.10;;;1.00;;
26504;SDS011;19493;48.042;7.584;2024-02-26T13:00:01;5.25;;;1.02;;
26504;SDS011;19493;48.042;7.584;2024-02-26T13:02:28;2.15;;;0.82;;
26504;SDS011;19493;48.042;7.584;2024-02-26T13:04:56;7.85;;;2.22;;
26504;SDS011;19493;48.042;7.584;2024-02-26T13:07:22;5.78;;;2.00;;
26504;SDS011;19493;48.042;7.584;2024-02-26T13:09:48;6.47;;;1.10;;
26504;SDS011;19493;48.042;7.584;2024-02-26T13:12:13;3.47;;;1.48;;
26504;SDS011;19493;48.042;7.584;2024-02-26T13:14:39;2.13;;;1.00;;
26504;SDS011;19493;48.042;7.584;2024-02-26T13:17:05;9.80;;;0.90;;
26504;SDS011;19493;48.042;7.584;2024-02-26T13:19:31;6.05;;;0.80;;
26504;SDS011;19493;48.042;7.584;2024-02-26T13:22:03;10.70;;;2.85;;
26504;SDS011;19493;48.042;7.584;2024-02-26T13:24:31;5.28;;;1.65;;
26504;SDS011;19493;48.042;7.584;2024-02-26T13:26:57;6.15;;;1.30;;
26504;SDS011;19493;48.042;7.584;2024-02-26T13:29:22;6.07;;;0.98;;
26504;SDS011;19493;48.042;7.584;2024-02-26T13:31:54;1.20;;;0.70;;
26504;SDS011;19493;48.042;7.584;2024-02-26T13:34:22;5.18;;;1.10;;
26504;SDS011;19493;48.042;7.584;2024-02-26T13:36:50;4.18;;;0.80;;
26504;SDS011;19493;48.042;7.584;2024-02-26T13:39:21;5.50;;;0.77;;
26504;SDS011;19493;48.042;7.584;2024-02-26T13:41:50;1.60;;;0.63;;
26504;SDS011;19493;48.042;7.584;2024-02-26T13:44:16;2.13;;;0.80;;
26504;SDS011;19493;48.042;7.584;2024-02-26T13:46:43;3.65;;;0.60;;
26504;SDS011;19493;48.042;7.584;2024-02-26T13:49:09;3.78;;;0.75;;
26504;SDS011;19493;48.042;7.584;2024-02-26T13:51:35;3.60;;;0.70;;
26504;SDS011;19493;48.042;7.584;2024-02-26T13:54:02;5.88;;;0.60;;
26504;SDS011;19493;48.042;7.584;2024-02-26T13:56:28;2.58;;;0.70;;
26504;SDS011;19493;48.042;7.584;2024-02-26T13:58:53;0.90;;;0.50;;
26504;SDS011;19493;48.042;7.584;2024-02-26T14:01:19;4.05;;;0.60;;
26504;SDS011;19493;48.042;7.584;2024-02-26T14:03:44;9.55;;;0.95;;
26504;SDS011;19493;48.042;7.584;2024-02-26T14:06:10;3.65;;;0.90;;
26504;SDS011;19493;48.042;7.584;2024-02-26T14:08:36;1.65;;;0.77;;
26504;SDS011;19493;48.042;7.584;2024-02-26T14:11:02;1.75;;;0.65;;
26504;SDS011;19493;48.042;7.584;2024-02-26T14:13:28;2.25;;;0.60;;
26504;SDS011;19493;48.042;7.584;2024-02-26T14:15:53;3.42;;;0.90;;
26504;SDS011;19493;48.042;7.584;2024-02-26T14:18:19;5.05;;;1.13;;
26504;SDS011;19493;48.042;7.584;2024-02-26T14:20:45;2.30;;;0.77;;
26504;SDS011;19493;48.042;7.584;2024-02-26T14:23:10;1.42;;;0.70;;
26504;SDS011;19493;48.042;7.584;2024-02-26T14:25:36;2.15;;;0.60;;
26504;SDS011;19493;48.042;7.584;2024-02-26T14:28:02;1.58;;;0.57;;
26504;SDS011;19493;48.042;7.584;2024-02-26T14:30:28;0.95;;;0.50;;
26504;SDS011;19493;48.042;7.584;2024-02-26T14:32:53;4.60;;;0.68;;
26504;SDS011;19493;48.042;7.584;2024-02-26T14:35:19;10.00;;;1.00;;
26504;SDS011;19493;48.042;7.584;2024-02-26T14:37:45;5.88;;;0.98;;
26504;SDS011;19493;48.042;7.584;2024-02-26T14:40:12;4.25;;;1.00;;
26504;SDS011;19493;48.042;7.584;2024-02-26T14:42:39;2.90;;;1.02;;
26504;SDS011;19493;48.042;7.584;2024-02-26T14:45:05;3.88;;;0.93;;
26504;SDS011;19493;48.042;7.584;2024-02-26T14:47:34;2.42;;;1.05;;
26504;SDS011;19493;48.042;7.584;2024-02-26T14:50:03;5.95;;;1.40;;
26504;SDS011;19493;48.042;7.584;2024-02-26T14:52:29;3.70;;;1.10;;
26504;SDS011;19493;48.042;7.584;2024-02-26T14:54:55;6.35;;;1.60;;
26504;SDS011;19493;48.042;7.584;2024-02-26T14:57:20;5.15;;;1.38;;